createdAt,value
2019-01-02T00:01:27.932Z,2.70
2019-01-02T00:03:58.377Z,2.60
2019-01-02T00:06:29.648Z,2.60
2019-01-02T00:09:01.467Z,2.60
2019-01-02T00:11:33.360Z,2.60
2019-01-02T00:14:03.541Z,2.50
2019-01-02T00:16:33.693Z,2.50
2019-01-02T00:19:03.865Z,2.50
2019-01-02T00:21:34.128Z,2.50
2019-01-02T00:24:04.374Z,2.50
2019-01-02T00:26:34.899Z,2.50
2019-01-02T00:29:05.033Z,2.50
2019-01-02T00:31:35.093Z,2.50
2019-01-02T00:34:05.134Z,2.50
2019-01-02T00:36:35.155Z,2.50
2019-01-02T00:39:07.518Z,2.50
2019-01-02T00:41:37.548Z,2.50
2019-01-02T00:44:08.054Z,2.40
2019-01-02T00:46:38.080Z,2.50
2019-01-02T00:49:08.698Z,2.40
2019-01-02T00:51:38.639Z,2.40
2019-01-02T00:54:09.052Z,2.40
2019-01-02T00:56:39.086Z,2.40
2019-01-02T00:59:09.519Z,2.40
2019-01-02T01:01:39.792Z,2.40
2019-01-02T01:04:10.159Z,2.40
2019-01-02T01:06:40.516Z,2.40
2019-01-02T01:09:11.232Z,2.40
2019-01-02T01:11:41.303Z,2.40
2019-01-02T01:14:11.776Z,2.50
2019-01-02T01:16:41.795Z,2.50
2019-01-02T01:19:12.789Z,2.50
2019-01-02T01:21:43.022Z,2.40
2019-01-02T01:24:13.553Z,2.50
2019-01-02T01:26:43.634Z,2.50
2019-01-02T01:29:13.804Z,2.50
2019-01-02T01:31:44.099Z,2.50
2019-01-02T01:34:15.171Z,2.40
2019-01-02T01:36:45.292Z,2.40
2019-01-02T01:39:15.866Z,2.30
2019-01-02T01:41:46.353Z,2.30
2019-01-02T01:44:16.540Z,2.20
2019-01-02T01:46:46.729Z,2.20
2019-01-02T01:49:17.013Z,2.10
2019-01-02T01:51:47.536Z,2.10
2019-01-02T01:54:17.634Z,2.10
2019-01-02T01:56:47.612Z,2.10
2019-01-02T01:59:18.102Z,2.10
2019-01-02T02:01:48.317Z,2.10
2019-01-02T02:04:18.425Z,2.10
2019-01-02T02:06:48.612Z,2.10
2019-01-02T02:09:18.740Z,2.10
2019-01-02T02:11:49.097Z,2.10
2019-01-02T02:14:19.457Z,2.10
2019-01-02T02:16:49.517Z,2.10
2019-01-02T02:19:20.644Z,2.20
2019-01-02T02:21:50.782Z,2.30
2019-01-02T02:24:22.913Z,2.30
2019-01-02T02:26:53.412Z,2.30
2019-01-02T02:29:25.058Z,2.30
2019-01-02T02:31:55.541Z,2.40
2019-01-02T02:34:25.772Z,2.40
2019-01-02T02:36:56.113Z,2.40
2019-01-02T02:39:26.409Z,2.40
2019-01-02T02:41:56.800Z,2.40
2019-01-02T02:44:27.300Z,2.50
2019-01-02T02:46:58.054Z,2.50
2019-01-02T02:49:28.232Z,2.50
2019-01-02T02:51:59.412Z,2.60
2019-01-02T02:54:31.070Z,2.60
2019-01-02T02:57:01.185Z,2.60
2019-01-02T02:59:31.425Z,2.60
2019-01-02T03:02:01.932Z,2.60
2019-01-02T03:04:33.580Z,2.60
2019-01-02T03:07:05.153Z,2.60
2019-01-02T03:09:35.538Z,2.60
2019-01-02T03:12:05.852Z,2.70
2019-01-02T03:14:36.007Z,2.70
2019-01-02T03:17:08.056Z,2.70
2019-01-02T03:19:38.699Z,2.70
2019-01-02T03:22:09.264Z,2.70
2019-01-02T03:24:40.879Z,2.70
2019-01-02T03:27:11.440Z,2.70
2019-01-02T03:29:41.542Z,2.70
2019-01-02T03:32:11.761Z,2.70
2019-01-02T03:34:42.395Z,2.70
2019-01-02T03:37:12.620Z,2.80
2019-01-02T03:39:42.634Z,2.80
2019-01-02T03:42:12.774Z,2.70
2019-01-02T03:44:42.863Z,2.80
2019-01-02T03:47:13.119Z,2.80
2019-01-02T03:49:43.214Z,2.90
2019-01-02T03:52:15.094Z,2.90
2019-01-02T03:54:45.198Z,3.00
2019-01-02T03:57:15.622Z,3.00
2019-01-02T03:59:45.810Z,3.00
2019-01-02T04:02:15.860Z,3.00
2019-01-02T04:04:45.992Z,3.00
2019-01-02T04:07:16.093Z,3.00
2019-01-02T04:09:46.212Z,3.00
2019-01-02T04:12:16.424Z,3.10
2019-01-02T04:14:46.781Z,3.10
2019-01-02T04:17:17.060Z,3.10
2019-01-02T04:19:47.233Z,3.10
2019-01-02T04:22:17.221Z,3.20
2019-01-02T04:24:47.449Z,3.30
2019-01-02T04:27:17.668Z,3.20
2019-01-02T04:29:47.886Z,3.20
2019-01-02T04:32:18.040Z,3.20
2019-01-02T04:34:48.333Z,3.30
2019-01-02T04:37:18.587Z,3.30
2019-01-02T04:39:48.593Z,3.30
2019-01-02T04:42:18.753Z,3.40
2019-01-02T04:44:48.920Z,3.30
2019-01-02T04:47:19.070Z,3.30
2019-01-02T04:49:49.255Z,3.40
2019-01-02T04:52:19.470Z,3.40
2019-01-02T04:54:49.641Z,3.40
2019-01-02T04:57:19.707Z,3.40
2019-01-02T04:59:51.976Z,3.40
2019-01-02T05:02:21.972Z,3.40
2019-01-02T05:04:52.217Z,3.40
2019-01-02T05:07:22.478Z,3.40
2019-01-02T05:09:52.497Z,3.40
2019-01-02T05:12:22.684Z,3.40
2019-01-02T05:14:52.692Z,3.40
2019-01-02T05:17:22.981Z,3.40
2019-01-02T05:19:53.033Z,3.40
2019-01-02T05:22:23.256Z,3.50
2019-01-02T05:24:53.333Z,3.50
2019-01-02T05:27:24.993Z,3.50
2019-01-02T05:29:54.937Z,3.50
2019-01-02T05:32:25.053Z,3.50
2019-01-02T05:34:55.174Z,3.50
2019-01-02T05:37:25.221Z,3.40
2019-01-02T05:39:55.533Z,3.40
2019-01-02T05:42:25.952Z,3.40
2019-01-02T05:44:56.052Z,3.50
2019-01-02T05:47:26.188Z,3.50
2019-01-02T05:49:57.383Z,3.50
2019-01-02T05:52:27.452Z,3.40
2019-01-02T05:54:57.676Z,3.40
2019-01-02T05:57:27.668Z,3.40
2019-01-02T05:59:59.333Z,3.40
2019-01-02T06:02:29.481Z,3.40
2019-01-02T06:04:59.581Z,3.30
2019-01-02T06:07:29.771Z,3.30
2019-01-02T06:09:59.840Z,3.30
2019-01-02T06:12:30.091Z,3.30
2019-01-02T06:15:00.361Z,3.30
2019-01-02T06:17:30.552Z,3.20
2019-01-02T06:20:02.139Z,3.30
2019-01-02T06:22:32.259Z,3.20
2019-01-02T06:25:02.385Z,3.20
2019-01-02T06:27:32.463Z,3.20
2019-01-02T06:30:02.413Z,3.20
2019-01-02T06:32:33.664Z,3.30
2019-01-02T06:35:03.737Z,3.20
2019-01-02T06:37:33.925Z,3.20
2019-01-02T06:40:04.560Z,3.20
2019-01-02T06:42:34.773Z,3.10
2019-01-02T06:45:06.276Z,3.10
2019-01-02T06:47:37.667Z,3.00
2019-01-02T06:50:11.024Z,2.90
2019-01-02T06:52:41.324Z,2.80
2019-01-02T06:55:11.529Z,2.80
2019-01-02T06:57:41.625Z,2.80
2019-01-02T07:00:16.125Z,2.70
2019-01-02T07:02:46.284Z,2.70
2019-01-02T07:05:16.353Z,2.70
2019-01-02T07:07:46.520Z,2.70
2019-01-02T07:10:16.484Z,2.70
2019-01-02T07:12:46.545Z,2.70
2019-01-02T07:15:16.492Z,2.70
2019-01-02T07:17:46.641Z,2.70
2019-01-02T07:20:16.774Z,2.70
2019-01-02T07:22:46.921Z,2.70
2019-01-02T07:25:17.072Z,2.70
2019-01-02T07:27:47.153Z,2.70
2019-01-02T07:30:19.864Z,2.70
2019-01-02T07:32:50.277Z,2.70
2019-01-02T07:36:02.129Z,2.70
2019-01-02T07:39:12.513Z,2.80
2019-01-02T07:42:20.945Z,2.80
2019-01-02T07:45:28.027Z,2.80
2019-01-02T07:48:38.170Z,2.80
2019-01-02T07:51:33.033Z,2.80
2019-01-02T07:54:32.365Z,2.80
2019-01-02T07:57:40.574Z,2.80
2019-01-02T08:00:44.829Z,2.80
2019-01-02T08:03:53.173Z,2.80
2019-01-02T08:06:45.594Z,2.80
2019-01-02T08:09:42.104Z,2.80
2019-01-02T08:12:42.844Z,2.80
2019-01-02T08:15:51.297Z,2.80
2019-01-02T08:18:39.572Z,2.80
2019-01-02T08:21:39.146Z,2.80
2019-01-02T08:24:35.149Z,2.80
2019-01-02T08:27:43.494Z,2.70
2019-01-02T08:30:37.020Z,2.70
2019-01-02T08:33:30.929Z,2.70
2019-01-02T08:36:33.144Z,2.70
2019-01-02T08:39:41.734Z,2.70
2019-01-02T08:42:33.993Z,2.60
2019-01-02T08:45:44.414Z,2.60
2019-01-02T08:48:43.479Z,2.60
2019-01-02T08:51:51.995Z,2.70
2019-01-02T08:55:00.443Z,2.70
2019-01-02T08:57:58.790Z,2.70
2019-01-02T09:00:56.724Z,2.70
2019-01-02T09:04:05.089Z,2.70
2019-01-02T09:06:48.927Z,2.70
2019-01-02T09:09:57.425Z,2.70
2019-01-02T09:12:53.901Z,2.80
2019-01-02T09:15:50.017Z,2.80
2019-01-02T09:18:52.942Z,2.90
2019-01-02T09:21:55.071Z,2.90
2019-01-02T09:24:48.585Z,2.90
2019-01-02T09:27:47.812Z,2.90
2019-01-02T09:30:47.142Z,2.90
2019-01-02T09:33:52.032Z,2.90
2019-01-02T09:36:56.360Z,3.00
2019-01-02T09:40:06.115Z,3.00
2019-01-02T09:43:12.977Z,3.00
2019-01-02T09:46:15.758Z,3.00
2019-01-02T09:49:04.561Z,3.00
2019-01-02T09:52:12.968Z,3.00
2019-01-02T09:55:21.425Z,3.00
2019-01-02T09:58:17.946Z,3.00
2019-01-02T10:00:59.704Z,3.00
2019-01-02T10:03:54.347Z,3.00
2019-01-02T10:06:49.645Z,3.00
2019-01-02T10:09:58.088Z,3.00
2019-01-02T10:12:39.512Z,3.00
2019-01-02T10:15:47.971Z,2.90
2019-01-02T10:18:46.977Z,2.90
2019-01-02T10:21:48.223Z,2.90
2019-01-02T10:24:42.605Z,2.90
2019-01-02T10:27:42.844Z,2.90
2019-01-02T10:30:51.245Z,2.90
2019-01-02T10:33:55.967Z,2.90
2019-01-02T10:36:59.052Z,2.80
2019-01-02T10:39:54.813Z,2.80
2019-01-02T10:42:45.304Z,2.80
2019-01-02T10:45:35.824Z,2.80
2019-01-02T10:48:36.519Z,2.80
2019-01-02T10:51:45.903Z,2.80
2019-01-02T10:54:46.001Z,2.80
2019-01-02T10:57:44.462Z,2.80
2019-01-02T11:00:30.447Z,2.80
2019-01-02T11:03:21.825Z,2.80
2019-01-02T11:06:18.205Z,2.80
2019-01-02T11:09:22.866Z,2.80
2019-01-02T11:12:31.277Z,2.80
2019-01-02T11:15:35.801Z,2.80
2019-01-02T11:18:44.289Z,2.80
2019-01-02T11:21:37.723Z,2.90
2019-01-02T11:24:34.242Z,2.90
2019-01-02T11:27:42.716Z,2.90
2019-01-02T11:30:38.599Z,3.00
2019-01-02T11:33:39.620Z,3.20
2019-01-02T11:36:42.415Z,3.20
2019-01-02T11:39:50.784Z,3.20
2019-01-02T11:42:59.280Z,3.20
2019-01-02T11:45:30.911Z,3.10
2019-01-02T11:48:01.023Z,3.00
2019-01-02T11:50:31.027Z,2.90
2019-01-02T11:53:02.332Z,2.90
2019-01-02T11:55:33.685Z,2.80
2019-01-02T11:58:03.911Z,2.80
2019-01-02T12:00:34.184Z,2.80
2019-01-02T12:03:05.348Z,2.70
2019-01-02T12:05:35.481Z,2.70
2019-01-02T12:08:06.509Z,2.60
2019-01-02T12:10:37.988Z,2.50
2019-01-02T12:13:08.157Z,2.50
2019-01-02T12:15:40.126Z,2.50
2019-01-02T12:18:10.279Z,2.40
2019-01-02T12:20:40.349Z,2.40
2019-01-02T12:23:10.501Z,2.40
2019-01-02T12:25:40.538Z,2.40
2019-01-02T12:28:10.859Z,2.30
2019-01-02T12:30:41.026Z,2.30
2019-01-02T12:33:11.033Z,2.20
2019-01-02T12:35:41.220Z,2.10
2019-01-02T12:38:11.855Z,2.10
2019-01-02T12:40:41.814Z,2.10
2019-01-02T12:43:12.005Z,2.10
2019-01-02T12:45:42.109Z,2.20
2019-01-02T12:48:24.705Z,2.20
2019-01-02T12:50:54.691Z,2.20
2019-01-02T12:53:25.127Z,2.30
2019-01-02T12:55:55.405Z,2.30
2019-01-02T12:58:26.638Z,2.30
2019-01-02T13:01:06.144Z,2.30
2019-01-02T13:04:14.179Z,2.30
2019-01-02T13:07:22.619Z,2.30
2019-01-02T13:10:09.166Z,2.30
2019-01-02T13:13:11.028Z,2.30
2019-01-02T13:16:16.337Z,2.20
2019-01-02T13:19:18.385Z,2.20
2019-01-02T13:22:14.126Z,2.10
2019-01-02T13:25:07.560Z,2.10
2019-01-02T13:28:06.987Z,2.20
2019-01-02T13:31:04.550Z,2.20
2019-01-02T13:33:57.805Z,2.20
2019-01-02T13:36:50.929Z,2.20
2019-01-02T13:39:51.070Z,2.10
2019-01-02T13:42:45.192Z,2.10
2019-01-02T13:45:38.826Z,2.10
2019-01-02T13:48:48.471Z,2.20
2019-01-02T13:51:34.497Z,2.10
2019-01-02T13:54:05.712Z,2.10
2019-01-02T13:56:37.372Z,2.10
2019-01-02T13:59:07.460Z,2.10
2019-01-02T14:01:37.602Z,2.10
2019-01-02T14:04:15.518Z,2.00
2019-01-02T14:06:47.122Z,2.00
2019-01-02T14:09:17.216Z,2.00
2019-01-02T14:11:47.392Z,2.00
2019-01-02T14:14:17.442Z,2.00
2019-01-02T14:16:47.526Z,2.00
2019-01-02T14:19:17.672Z,2.00
2019-01-02T14:21:47.844Z,2.00
2019-01-02T14:24:17.893Z,2.00
2019-01-02T14:26:47.964Z,2.00
2019-01-02T14:29:18.103Z,2.00
2019-01-02T14:31:49.093Z,1.90
2019-01-02T14:34:19.264Z,1.90
2019-01-02T14:36:49.733Z,1.90
2019-01-02T14:39:19.831Z,1.90
2019-01-02T14:41:50.359Z,1.90
2019-01-02T14:44:21.465Z,1.90
2019-01-02T14:46:51.645Z,1.90
2019-01-02T14:49:21.642Z,1.80
2019-01-02T14:51:51.647Z,1.70
2019-01-02T14:54:21.832Z,1.70
2019-01-02T14:56:51.890Z,1.60
2019-01-02T14:59:22.627Z,1.60
2019-01-02T15:01:52.772Z,1.60
2019-01-02T15:04:22.904Z,1.60
2019-01-02T15:06:53.286Z,1.60
2019-01-02T15:09:23.415Z,1.60
2019-01-02T15:11:54.388Z,1.60
2019-01-02T15:14:24.408Z,1.60
2019-01-02T15:16:54.434Z,1.60
2019-01-02T15:19:26.567Z,1.60
2019-01-02T15:21:56.635Z,1.60
2019-01-02T15:24:32.257Z,1.50
2019-01-02T15:27:15.129Z,1.50
2019-01-02T15:29:45.176Z,1.50
2019-01-02T15:32:15.166Z,1.50
2019-01-02T15:34:45.195Z,1.50
2019-01-02T15:37:15.149Z,1.40
2019-01-02T15:39:45.143Z,1.40
2019-01-02T15:42:15.124Z,1.30
2019-01-02T15:44:45.245Z,1.30
2019-01-02T15:47:15.262Z,1.30
2019-01-02T15:49:45.434Z,1.30
2019-01-02T15:52:16.643Z,1.30
2019-01-02T15:54:46.631Z,1.20
2019-01-02T15:57:16.852Z,1.20
2019-01-02T15:59:47.107Z,1.30
2019-01-02T16:02:17.265Z,1.30
2019-01-02T16:04:51.321Z,1.30
2019-01-02T16:07:41.395Z,1.30
2019-01-02T16:10:24.614Z,1.30
2019-01-02T16:12:54.814Z,1.30
2019-01-02T16:15:25.053Z,1.30
2019-01-02T16:17:55.091Z,1.20
2019-01-02T16:20:25.254Z,1.20
2019-01-02T16:23:24.703Z,1.20
2019-01-02T16:26:33.180Z,1.30
2019-01-02T16:29:06.346Z,1.30
2019-01-02T16:32:17.217Z,1.30
2019-01-02T16:35:41.828Z,1.30
2019-01-02T16:39:20.803Z,1.20
2019-01-02T16:42:47.606Z,1.20
2019-01-02T16:45:53.929Z,1.10
2019-01-02T16:49:14.041Z,1.10
2019-01-02T16:52:21.280Z,1.00
2019-01-02T16:55:41.054Z,1.00
2019-01-02T16:58:58.729Z,1.00
2019-01-02T17:01:36.545Z,1.00
2019-01-02T17:04:11.570Z,1.00
2019-01-02T17:06:41.629Z,1.00
2019-01-02T17:09:12.106Z,1.00
2019-01-02T17:12:43.988Z,1.00
2019-01-02T17:16:28.652Z,1.00
2019-01-02T17:19:01.818Z,1.00
2019-01-02T17:23:03.834Z,1.00
2019-01-02T17:26:51.081Z,1.00
2019-01-02T17:30:12.469Z,0.90
2019-01-02T17:33:37.825Z,0.90
2019-01-02T17:37:27.618Z,0.90
2019-01-02T17:41:13.457Z,0.90
2019-01-02T17:45:01.956Z,1.00
2019-01-02T17:49:02.703Z,0.90
2019-01-02T17:52:47.003Z,0.90
2019-01-02T17:56:19.052Z,0.90
2019-01-02T17:58:53.266Z,0.80
2019-01-02T18:01:23.940Z,0.80
2019-01-02T18:03:54.229Z,0.80
2019-01-02T18:06:26.954Z,0.70
2019-01-02T18:08:59.338Z,0.70
2019-01-02T18:11:29.563Z,0.70
2019-01-02T18:13:59.657Z,0.70
2019-01-02T18:16:29.854Z,0.70
2019-01-02T18:19:16.703Z,0.60
2019-01-02T18:21:48.944Z,0.60
2019-01-02T18:24:19.157Z,0.60
2019-01-02T18:26:49.427Z,0.60
2019-01-02T18:29:19.644Z,0.60
2019-01-02T18:31:49.732Z,0.70
2019-01-02T18:34:19.933Z,0.70
2019-01-02T18:36:50.109Z,0.70
2019-01-02T18:39:21.363Z,0.70
2019-01-02T18:41:51.566Z,0.70
2019-01-02T18:44:21.644Z,0.70
2019-01-02T18:46:51.708Z,0.70
2019-01-02T18:49:22.046Z,0.70
2019-01-02T18:51:52.052Z,0.70
2019-01-02T18:54:22.062Z,0.70
2019-01-02T18:56:52.189Z,0.70
2019-01-02T18:59:42.308Z,0.70
2019-01-02T19:02:53.062Z,0.70
2019-01-02T19:05:57.275Z,0.70
2019-01-02T19:09:11.303Z,0.70
2019-01-02T19:11:48.523Z,0.70
2019-01-02T19:14:25.405Z,0.70
2019-01-02T19:17:02.031Z,0.70
2019-01-02T19:20:26.384Z,0.70
2019-01-02T19:23:11.051Z,0.70
2019-01-02T19:25:41.445Z,0.70
2019-01-02T19:28:11.967Z,0.70
2019-01-02T19:30:43.256Z,0.70
2019-01-02T19:33:14.406Z,0.70
2019-01-02T19:35:44.531Z,0.70
2019-01-02T19:38:14.685Z,0.70
2019-01-02T19:40:45.167Z,0.70
2019-01-02T19:43:15.747Z,0.70
2019-01-02T19:45:46.166Z,0.70
2019-01-02T19:48:16.489Z,0.70
2019-01-02T19:50:46.697Z,0.70
2019-01-02T19:53:16.955Z,0.60
2019-01-02T19:55:54.454Z,0.70
2019-01-02T19:58:37.981Z,0.60
2019-01-02T20:01:18.143Z,0.60
2019-01-02T20:04:11.238Z,0.60
2019-01-02T20:07:18.551Z,0.60
2019-01-02T20:10:22.244Z,0.60
2019-01-02T20:13:08.418Z,0.70
2019-01-02T20:16:01.448Z,0.60
2019-01-02T20:19:22.805Z,0.60
2019-01-02T20:21:57.361Z,0.70
2019-01-02T20:24:57.016Z,0.70
2019-01-02T20:27:27.788Z,0.70
2019-01-02T20:29:59.208Z,0.70
2019-01-02T20:32:29.905Z,0.60
2019-01-02T20:35:00.346Z,0.60
2019-01-02T20:37:30.753Z,0.60
2019-01-02T20:40:01.025Z,0.60
2019-01-02T20:42:31.305Z,0.60
2019-01-02T20:45:01.474Z,0.60
2019-01-02T20:47:31.631Z,0.60
2019-01-02T20:50:09.604Z,0.60
2019-01-02T20:53:03.126Z,0.60
2019-01-02T20:55:37.111Z,0.70
2019-01-02T20:58:48.477Z,0.60
2019-01-02T21:01:27.203Z,0.60
2019-01-02T21:03:59.300Z,0.60
2019-01-02T21:06:29.525Z,0.70
2019-01-02T21:09:03.551Z,0.70
2019-01-02T21:11:35.585Z,0.70
2019-01-02T21:14:16.118Z,0.70
2019-01-02T21:16:46.605Z,0.70
2019-01-02T21:19:17.920Z,0.70
2019-01-02T21:21:52.669Z,0.70
2019-01-02T21:24:30.111Z,0.70
2019-01-02T21:27:02.614Z,0.70
2019-01-02T21:29:37.693Z,0.70
2019-01-02T21:32:50.822Z,0.70
2019-01-02T21:35:35.553Z,0.70
2019-01-02T21:38:05.691Z,0.70
2019-01-02T21:40:35.751Z,0.80
2019-01-02T21:43:05.857Z,0.70
2019-01-02T21:45:36.933Z,0.80
2019-01-02T21:48:07.626Z,0.70
2019-01-02T21:50:37.745Z,0.80
2019-01-02T21:53:09.615Z,0.80
2019-01-02T21:55:42.809Z,0.80
2019-01-02T21:58:13.195Z,0.70
2019-01-02T22:00:44.945Z,0.70
2019-01-02T22:03:15.205Z,0.70
2019-01-02T22:20:02.860Z,0.70
2019-01-02T22:22:33.281Z,0.80
2019-01-02T22:25:03.189Z,0.80
2019-01-02T22:27:44.034Z,0.70
2019-01-02T22:30:15.039Z,0.70
2019-01-02T22:32:45.609Z,0.70
2019-01-02T22:35:16.759Z,0.70
2019-01-02T22:37:47.036Z,0.60
2019-01-02T22:40:17.120Z,0.60
2019-01-02T22:42:47.664Z,0.70
2019-01-02T22:45:17.785Z,0.60
2019-01-02T22:47:48.039Z,0.60
2019-01-02T22:50:18.311Z,0.60
2019-01-02T22:52:48.461Z,0.50
2019-01-02T22:55:18.577Z,0.50
2019-01-02T22:57:48.638Z,0.60
2019-01-02T23:03:32.219Z,0.60
2019-01-02T23:06:21.490Z,0.60
2019-01-02T23:09:10.574Z,0.50
2019-01-02T23:12:01.388Z,0.50
2019-01-02T23:14:49.266Z,0.60
2019-01-02T23:17:32.848Z,0.60
2019-01-02T23:20:21.979Z,0.50
2019-01-02T23:23:11.166Z,0.50
2019-01-02T23:26:00.285Z,0.50
2019-01-02T23:28:49.282Z,0.50
2019-01-02T23:31:38.549Z,0.50
2019-01-02T23:34:27.022Z,0.50
2019-01-02T23:37:17.013Z,0.50
2019-01-02T23:40:06.238Z,0.50
2019-01-02T23:42:49.272Z,0.40
2019-01-02T23:45:38.333Z,0.40
2019-01-02T23:48:27.604Z,0.30
2019-01-02T23:51:16.670Z,0.30
